sensor_id;sensor_type;location;lat;lon;timestamp;P1;durP1;ratioP1;P2;durP2;ratioP2
15871;SDS011;8035;51.962;7.162;2023-03-01T00:01:13;9.57;;;5.40;;
15871;SDS011;8035;51.962;7.162;2023-03-01T00:03:44;7.90;;;6.03;;
15871;SDS011;8035;51.962;7.162;2023-03-01T00:06:10;7.27;;;5.43;;
15871;SDS011;8035;51.962;7.162;2023-03-01T00:08:36;7.60;;;5.13;;
15871;SDS011;8035;51.962;7.162;2023-03-01T00:13:39;5.87;;;4.70;;
15871;SDS011;8035;51.962;7.162;2023-03-01T00:18:51;5.30;;;4.73;;
15871;SDS011;8035;51.962;7.162;2023-03-01T00:21:19;7.10;;;4.50;;
15871;SDS011;8035;51.962;7.162;2023-03-01T00:23:47;8.27;;;4.80;;
15871;SDS011;8035;51.962;7.162;2023-03-01T00:26:13;5.50;;;4.90;;
15871;SDS011;8035;51.962;7.162;2023-03-01T00:28:40;5.37;;;4.43;;
15871;SDS011;8035;51.962;7.162;2023-03-01T00:31:07;4.93;;;4.43;;
15871;SDS011;8035;51.962;7.162;2023-03-01T00:33:35;5.00;;;4.50;;
15871;SDS011;8035;51.962;7.162;2023-03-01T00:36:00;6.93;;;4.23;;
15871;SDS011;8035;51.962;7.162;2023-03-01T00:38:27;5.97;;;4.80;;
15871;SDS011;8035;51.962;7.162;2023-03-01T00:40:53;5.67;;;4.83;;
15871;SDS011;8035;51.962;7.162;2023-03-01T00:43:19;5.07;;;4.57;;
15871;SDS011;8035;51.962;7.162;2023-03-01T00:45:45;4.30;;;3.90;;
15871;SDS011;8035;51.962;7.162;2023-03-01T00:48:10;5.90;;;4.63;;
15871;SDS011;8035;51.962;7.162;2023-03-01T00:50:36;5.90;;;4.60;;
15871;SDS011;8035;51.962;7.162;2023-03-01T00:53:02;6.63;;;4.57;;
15871;SDS011;8035;51.962;7.162;2023-03-01T00:55:28;5.17;;;4.67;;
15871;SDS011;8035;51.962;7.162;2023-03-01T00:57:53;4.33;;;3.93;;
15871;SDS011;8035;51.962;7.162;2023-03-01T01:00:19;6.07;;;4.90;;
15871;SDS011;8035;51.962;7.162;2023-03-01T01:02:45;6.87;;;4.57;;
15871;SDS011;8035;51.962;7.162;2023-03-01T01:05:11;6.17;;;4.80;;
15871;SDS011;8035;51.962;7.162;2023-03-01T01:07:38;6.60;;;4.87;;
15871;SDS011;8035;51.962;7.162;2023-03-01T01:10:03;5.90;;;4.83;;
15871;SDS011;8035;51.962;7.162;2023-03-01T01:12:30;5.33;;;4.73;;
15871;SDS011;8035;51.962;7.162;2023-03-01T01:14:55;5.30;;;4.73;;
15871;SDS011;8035;51.962;7.162;2023-03-01T01:17:21;6.70;;;5.10;;
15871;SDS011;8035;51.962;7.162;2023-03-01T01:19:47;6.33;;;5.13;;
15871;SDS011;8035;51.962;7.162;2023-03-01T01:22:12;7.63;;;5.87;;
15871;SDS011;8035;51.962;7.162;2023-03-01T01:24:38;7.40;;;6.27;;
15871;SDS011;8035;51.962;7.162;2023-03-01T01:27:04;9.03;;;6.33;;
15871;SDS011;8035;51.962;7.162;2023-03-01T01:29:29;7.30;;;5.90;;
15871;SDS011;8035;51.962;7.162;2023-03-01T01:31:55;10.63;;;7.20;;
15871;SDS011;8035;51.962;7.162;2023-03-01T01:34:21;9.93;;;7.20;;
15871;SDS011;8035;51.962;7.162;2023-03-01T01:36:48;8.23;;;6.70;;
15871;SDS011;8035;51.962;7.162;2023-03-01T01:39:15;9.30;;;7.20;;
15871;SDS011;8035;51.962;7.162;2023-03-01T01:41:41;9.73;;;6.47;;
15871;SDS011;8035;51.962;7.162;2023-03-01T01:44:12;8.63;;;6.27;;
15871;SDS011;8035;51.962;7.162;2023-03-01T01:46:44;6.57;;;5.00;;
15871;SDS011;8035;51.962;7.162;2023-03-01T01:52:04;6.47;;;5.20;;
15871;SDS011;8035;51.962;7.162;2023-03-01T01:57:27;5.90;;;4.70;;
15871;SDS011;8035;51.962;7.162;2023-03-01T02:00:00;8.77;;;5.13;;
15871;SDS011;8035;51.962;7.162;2023-03-01T02:02:30;6.60;;;4.60;;
15871;SDS011;8035;51.962;7.162;2023-03-01T02:07:50;8.13;;;4.87;;
15871;SDS011;8035;51.962;7.162;2023-03-01T02:10:17;5.87;;;4.60;;
15871;SDS011;8035;51.962;7.162;2023-03-01T02:12:43;6.43;;;4.90;;
15871;SDS011;8035;51.962;7.162;2023-03-01T02:15:09;5.23;;;4.70;;
15871;SDS011;8035;51.962;7.162;2023-03-01T02:17:35;7.13;;;5.30;;
15871;SDS011;8035;51.962;7.162;2023-03-01T02:23:02;6.30;;;5.00;;
15871;SDS011;8035;51.962;7.162;2023-03-01T02:30:55;5.93;;;5.13;;
15871;SDS011;8035;51.962;7.162;2023-03-01T02:33:39;6.53;;;5.03;;
15871;SDS011;8035;51.962;7.162;2023-03-01T02:36:10;5.50;;;4.43;;
15871;SDS011;8035;51.962;7.162;2023-03-01T02:38:40;5.53;;;4.33;;
15871;SDS011;8035;51.962;7.162;2023-03-01T02:41:07;5.90;;;4.93;;
15871;SDS011;8035;51.962;7.162;2023-03-01T02:43:34;6.83;;;5.43;;
15871;SDS011;8035;51.962;7.162;2023-03-01T02:46:06;8.93;;;6.20;;
15871;SDS011;8035;51.962;7.162;2023-03-01T02:48:41;9.47;;;6.07;;
15871;SDS011;8035;51.962;7.162;2023-03-01T02:51:22;10.27;;;6.20;;
15871;SDS011;8035;51.962;7.162;2023-03-01T02:54:22;6.80;;;4.83;;
15871;SDS011;8035;51.962;7.162;2023-03-01T02:56:54;7.53;;;5.80;;
15871;SDS011;8035;51.962;7.162;2023-03-01T02:59:22;8.63;;;6.03;;
15871;SDS011;8035;51.962;7.162;2023-03-01T03:01:51;5.83;;;5.10;;
15871;SDS011;8035;51.962;7.162;2023-03-01T03:04:17;7.77;;;4.97;;
15871;SDS011;8035;51.962;7.162;2023-03-01T03:06:44;6.47;;;5.23;;
15871;SDS011;8035;51.962;7.162;2023-03-01T03:09:11;6.97;;;5.17;;
15871;SDS011;8035;51.962;7.162;2023-03-01T03:11:37;6.80;;;5.23;;
15871;SDS011;8035;51.962;7.162;2023-03-01T03:14:04;7.43;;;5.50;;
15871;SDS011;8035;51.962;7.162;2023-03-01T03:16:30;8.33;;;5.27;;
15871;SDS011;8035;51.962;7.162;2023-03-01T03:18:56;6.87;;;5.67;;
15871;SDS011;8035;51.962;7.162;2023-03-01T03:21:30;7.40;;;5.50;;
15871;SDS011;8035;51.962;7.162;2023-03-01T03:23:59;8.43;;;5.63;;
15871;SDS011;8035;51.962;7.162;2023-03-01T03:26:25;6.80;;;4.83;;
15871;SDS011;8035;51.962;7.162;2023-03-01T03:28:51;5.67;;;5.07;;
15871;SDS011;8035;51.962;7.162;2023-03-01T03:31:17;9.73;;;5.57;;
15871;SDS011;8035;51.962;7.162;2023-03-01T03:33:43;7.30;;;5.33;;
15871;SDS011;8035;51.962;7.162;2023-03-01T03:36:08;5.67;;;4.80;;
15871;SDS011;8035;51.962;7.162;2023-03-01T03:38:38;5.10;;;4.60;;
15871;SDS011;8035;51.962;7.162;2023-03-01T03:41:05;6.20;;;4.40;;
15871;SDS011;8035;51.962;7.162;2023-03-01T03:43:33;7.07;;;4.70;;
15871;SDS011;8035;51.962;7.162;2023-03-01T03:46:01;5.83;;;4.60;;
15871;SDS011;8035;51.962;7.162;2023-03-01T03:48:30;6.73;;;5.13;;
15871;SDS011;8035;51.962;7.162;2023-03-01T03:51:00;5.60;;;4.40;;
15871;SDS011;8035;51.962;7.162;2023-03-01T03:53:27;6.23;;;4.50;;
15871;SDS011;8035;51.962;7.162;2023-03-01T03:55:54;5.93;;;4.37;;
15871;SDS011;8035;51.962;7.162;2023-03-01T03:58:21;5.17;;;4.50;;
15871;SDS011;8035;51.962;7.162;2023-03-01T04:00:48;5.60;;;4.67;;
15871;SDS011;8035;51.962;7.162;2023-03-01T04:03:17;4.77;;;4.23;;
15871;SDS011;8035;51.962;7.162;2023-03-01T04:05:45;7.90;;;4.60;;
15871;SDS011;8035;51.962;7.162;2023-03-01T04:08:11;6.83;;;4.67;;
15871;SDS011;8035;51.962;7.162;2023-03-01T04:10:38;5.50;;;4.73;;
15871;SDS011;8035;51.962;7.162;2023-03-01T04:13:05;6.07;;;4.90;;
15871;SDS011;8035;51.962;7.162;2023-03-01T04:15:33;6.63;;;4.70;;
15871;SDS011;8035;51.962;7.162;2023-03-01T04:17:59;7.60;;;4.80;;
15871;SDS011;8035;51.962;7.162;2023-03-01T04:20:26;5.20;;;4.60;;
15871;SDS011;8035;51.962;7.162;2023-03-01T04:22:57;5.30;;;4.80;;
15871;SDS011;8035;51.962;7.162;2023-03-01T04:25:37;7.97;;;5.72;;
15871;SDS011;8035;51.962;7.162;2023-03-01T04:28:04;8.23;;;6.40;;
15871;SDS011;8035;51.962;7.162;2023-03-01T04:30:31;7.70;;;6.70;;
15871;SDS011;8035;51.962;7.162;2023-03-01T04:33:15;6.33;;;5.20;;
15871;SDS011;8035;51.962;7.162;2023-03-01T04:35:41;6.53;;;5.00;;
15871;SDS011;8035;51.962;7.162;2023-03-01T04:38:06;7.07;;;5.60;;
15871;SDS011;8035;51.962;7.162;2023-03-01T04:40:33;6.93;;;5.53;;
15871;SDS011;8035;51.962;7.162;2023-03-01T04:42:59;8.27;;;5.80;;
15871;SDS011;8035;51.962;7.162;2023-03-01T04:45:24;5.73;;;5.10;;
15871;SDS011;8035;51.962;7.162;2023-03-01T04:47:50;6.23;;;5.20;;
15871;SDS011;8035;51.962;7.162;2023-03-01T04:50:19;5.33;;;4.43;;
15871;SDS011;8035;51.962;7.162;2023-03-01T04:53:03;5.70;;;4.63;;
15871;SDS011;8035;51.962;7.162;2023-03-01T04:55:29;5.27;;;4.77;;
15871;SDS011;8035;51.962;7.162;2023-03-01T04:57:56;6.27;;;4.30;;
15871;SDS011;8035;51.962;7.162;2023-03-01T05:00:22;5.07;;;4.23;;
15871;SDS011;8035;51.962;7.162;2023-03-01T05:02:53;5.00;;;4.37;;
15871;SDS011;8035;51.962;7.162;2023-03-01T05:05:39;6.57;;;4.73;;
15871;SDS011;8035;51.962;7.162;2023-03-01T05:08:05;5.30;;;4.77;;
15871;SDS011;8035;51.962;7.162;2023-03-01T05:10:33;5.73;;;4.30;;
15871;SDS011;8035;51.962;7.162;2023-03-01T05:13:00;5.53;;;4.63;;
15871;SDS011;8035;51.962;7.162;2023-03-01T05:15:28;4.97;;;4.43;;
15871;SDS011;8035;51.962;7.162;2023-03-01T05:17:56;4.90;;;4.40;;
15871;SDS011;8035;51.962;7.162;2023-03-01T05:20:24;5.07;;;4.30;;
15871;SDS011;8035;51.962;7.162;2023-03-01T05:22:51;6.20;;;4.70;;
15871;SDS011;8035;51.962;7.162;2023-03-01T05:25:19;7.43;;;4.77;;
15871;SDS011;8035;51.962;7.162;2023-03-01T05:27:46;5.27;;;4.13;;
15871;SDS011;8035;51.962;7.162;2023-03-01T05:30:12;5.20;;;4.37;;
15871;SDS011;8035;51.962;7.162;2023-03-01T05:32:42;5.97;;;3.97;;
15871;SDS011;8035;51.962;7.162;2023-03-01T05:35:13;4.70;;;3.90;;
15871;SDS011;8035;51.962;7.162;2023-03-01T05:37:46;7.70;;;4.50;;
15871;SDS011;8035;51.962;7.162;2023-03-01T05:40:14;4.97;;;4.33;;
15871;SDS011;8035;51.962;7.162;2023-03-01T05:42:47;6.50;;;4.43;;
15871;SDS011;8035;51.962;7.162;2023-03-01T05:45:16;5.07;;;4.23;;
15871;SDS011;8035;51.962;7.162;2023-03-01T05:47:43;6.50;;;4.53;;
15871;SDS011;8035;51.962;7.162;2023-03-01T05:50:11;6.90;;;4.40;;
15871;SDS011;8035;51.962;7.162;2023-03-01T05:52:38;6.80;;;4.17;;
15871;SDS011;8035;51.962;7.162;2023-03-01T05:55:03;5.70;;;4.30;;
15871;SDS011;8035;51.962;7.162;2023-03-01T05:57:30;7.00;;;4.73;;
15871;SDS011;8035;51.962;7.162;2023-03-01T05:59:55;4.40;;;3.90;;
15871;SDS011;8035;51.962;7.162;2023-03-01T06:02:21;4.90;;;4.33;;
15871;SDS011;8035;51.962;7.162;2023-03-01T06:04:46;5.73;;;4.37;;
15871;SDS011;8035;51.962;7.162;2023-03-01T06:07:12;8.70;;;5.00;;
15871;SDS011;8035;51.962;7.162;2023-03-01T06:09:38;6.20;;;4.50;;
15871;SDS011;8035;51.962;7.162;2023-03-01T06:12:03;6.23;;;4.50;;
15871;SDS011;8035;51.962;7.162;2023-03-01T06:14:30;6.80;;;5.30;;
15871;SDS011;8035;51.962;7.162;2023-03-01T06:16:56;5.30;;;4.63;;
15871;SDS011;8035;51.962;7.162;2023-03-01T06:19:22;10.60;;;5.57;;
15871;SDS011;8035;51.962;7.162;2023-03-01T06:21:47;5.70;;;4.73;;
15871;SDS011;8035;51.962;7.162;2023-03-01T06:24:13;5.63;;;4.70;;
15871;SDS011;8035;51.962;7.162;2023-03-01T06:26:39;7.93;;;4.93;;
15871;SDS011;8035;51.962;7.162;2023-03-01T06:29:05;5.73;;;4.93;;
15871;SDS011;8035;51.962;7.162;2023-03-01T06:31:30;7.27;;;5.17;;
15871;SDS011;8035;51.962;7.162;2023-03-01T06:33:56;5.73;;;4.47;;
15871;SDS011;8035;51.962;7.162;2023-03-01T06:36:21;6.13;;;5.00;;
15871;SDS011;8035;51.962;7.162;2023-03-01T06:38:47;6.60;;;5.30;;
15871;SDS011;8035;51.962;7.162;2023-03-01T06:41:12;6.13;;;5.00;;
15871;SDS011;8035;51.962;7.162;2023-03-01T06:43:38;8.77;;;5.67;;
15871;SDS011;8035;51.962;7.162;2023-03-01T06:46:04;10.10;;;5.13;;
15871;SDS011;8035;51.962;7.162;2023-03-01T06:48:31;7.73;;;5.60;;
15871;SDS011;8035;51.962;7.162;2023-03-01T06:50:58;6.80;;;5.03;;
15871;SDS011;8035;51.962;7.162;2023-03-01T06:53:25;10.77;;;5.27;;
15871;SDS011;8035;51.962;7.162;2023-03-01T06:55:58;6.47;;;5.50;;
15871;SDS011;8035;51.962;7.162;2023-03-01T06:58:26;6.03;;;5.37;;
15871;SDS011;8035;51.962;7.162;2023-03-01T07:00:52;8.07;;;5.87;;
15871;SDS011;8035;51.962;7.162;2023-03-01T07:03:17;5.80;;;4.97;;
15871;SDS011;8035;51.962;7.162;2023-03-01T07:05:43;11.77;;;5.97;;
15871;SDS011;8035;51.962;7.162;2023-03-01T07:08:09;6.03;;;5.20;;
15871;SDS011;8035;51.962;7.162;2023-03-01T07:10:35;9.00;;;7.20;;
15871;SDS011;8035;51.962;7.162;2023-03-01T07:13:01;6.90;;;5.73;;
15871;SDS011;8035;51.962;7.162;2023-03-01T07:15:26;8.63;;;5.27;;
15871;SDS011;8035;51.962;7.162;2023-03-01T07:17:53;8.10;;;5.70;;
15871;SDS011;8035;51.962;7.162;2023-03-01T07:20:20;7.00;;;5.70;;
15871;SDS011;8035;51.962;7.162;2023-03-01T07:22:50;7.00;;;5.73;;
15871;SDS011;8035;51.962;7.162;2023-03-01T07:25:17;9.17;;;5.73;;
15871;SDS011;8035;51.962;7.162;2023-03-01T07:27:42;7.13;;;5.33;;
15871;SDS011;8035;51.962;7.162;2023-03-01T07:30:08;6.10;;;5.27;;
15871;SDS011;8035;51.962;7.162;2023-03-01T07:32:34;7.13;;;5.47;;
15871;SDS011;8035;51.962;7.162;2023-03-01T07:35:00;7.40;;;6.17;;
15871;SDS011;8035;51.962;7.162;2023-03-01T07:37:26;8.27;;;6.63;;
15871;SDS011;8035;51.962;7.162;2023-03-01T07:39:51;7.80;;;5.63;;
15871;SDS011;8035;51.962;7.162;2023-03-01T07:42:17;8.53;;;6.10;;
15871;SDS011;8035;51.962;7.162;2023-03-01T07:44:42;7.93;;;6.07;;
15871;SDS011;8035;51.962;7.162;2023-03-01T07:47:08;7.20;;;5.80;;
15871;SDS011;8035;51.962;7.162;2023-03-01T07:49:33;6.53;;;5.80;;
15871;SDS011;8035;51.962;7.162;2023-03-01T07:51:59;6.93;;;5.67;;
15871;SDS011;8035;51.962;7.162;2023-03-01T07:54:25;6.13;;;5.50;;
15871;SDS011;8035;51.962;7.162;2023-03-01T07:56:51;5.90;;;5.27;;
15871;SDS011;8035;51.962;7.162;2023-03-01T07:59:17;6.20;;;5.63;;
15871;SDS011;8035;51.962;7.162;2023-03-01T08:01:42;7.83;;;5.77;;
15871;SDS011;8035;51.962;7.162;2023-03-01T08:04:08;6.47;;;5.80;;
15871;SDS011;8035;51.962;7.162;2023-03-01T08:06:34;6.63;;;5.40;;
15871;SDS011;8035;51.962;7.162;2023-03-01T08:09:00;5.57;;;4.80;;
15871;SDS011;8035;51.962;7.162;2023-03-01T08:11:26;6.03;;;5.17;;
15871;SDS011;8035;51.962;7.162;2023-03-01T08:13:55;5.90;;;5.33;;
15871;SDS011;8035;51.962;7.162;2023-03-01T08:16:22;6.73;;;5.37;;
15871;SDS011;8035;51.962;7.162;2023-03-01T08:18:48;6.13;;;5.50;;
15871;SDS011;8035;51.962;7.162;2023-03-01T08:21:14;6.13;;;5.23;;
15871;SDS011;8035;51.962;7.162;2023-03-01T08:23:42;5.30;;;4.67;;
15871;SDS011;8035;51.962;7.162;2023-03-01T08:28:52;6.67;;;5.00;;
15871;SDS011;8035;51.962;7.162;2023-03-01T08:33:45;8.00;;;5.47;;
15871;SDS011;8035;51.962;7.162;2023-03-01T08:36:20;7.80;;;5.70;;
15871;SDS011;8035;51.962;7.162;2023-03-01T08:38:47;7.73;;;5.47;;
15871;SDS011;8035;51.962;7.162;2023-03-01T08:41:12;5.73;;;5.10;;
15871;SDS011;8035;51.962;7.162;2023-03-01T08:43:38;6.60;;;5.00;;
15871;SDS011;8035;51.962;7.162;2023-03-01T08:46:04;6.53;;;5.80;;
15871;SDS011;8035;51.962;7.162;2023-03-01T08:48:29;5.77;;;5.20;;
15871;SDS011;8035;51.962;7.162;2023-03-01T08:50:55;6.03;;;5.43;;
15871;SDS011;8035;51.962;7.162;2023-03-01T08:53:21;8.50;;;5.80;;
15871;SDS011;8035;51.962;7.162;2023-03-01T08:55:46;6.63;;;5.47;;
15871;SDS011;8035;51.962;7.162;2023-03-01T08:58:12;6.80;;;4.90;;
15871;SDS011;8035;51.962;7.162;2023-03-01T09:00:38;5.83;;;5.23;;
15871;SDS011;8035;51.962;7.162;2023-03-01T09:03:03;6.93;;;5.43;;
15871;SDS011;8035;51.962;7.162;2023-03-01T09:05:32;7.43;;;5.83;;
15871;SDS011;8035;51.962;7.162;2023-03-01T09:07:59;9.83;;;6.23;;
15871;SDS011;8035;51.962;7.162;2023-03-01T09:10:24;6.93;;;5.80;;
15871;SDS011;8035;51.962;7.162;2023-03-01T09:12:51;10.47;;;7.03;;
15871;SDS011;8035;51.962;7.162;2023-03-01T09:15:16;9.17;;;6.40;;
15871;SDS011;8035;51.962;7.162;2023-03-01T09:17:42;11.23;;;7.90;;
15871;SDS011;8035;51.962;7.162;2023-03-01T09:20:08;7.70;;;6.03;;
15871;SDS011;8035;51.962;7.162;2023-03-01T09:22:35;8.23;;;5.70;;
15871;SDS011;8035;51.962;7.162;2023-03-01T09:25:01;7.77;;;5.60;;
15871;SDS011;8035;51.962;7.162;2023-03-01T09:27:26;7.20;;;5.80;;
15871;SDS011;8035;51.962;7.162;2023-03-01T09:29:52;6.87;;;5.03;;
15871;SDS011;8035;51.962;7.162;2023-03-01T09:32:18;5.80;;;5.17;;
15871;SDS011;8035;51.962;7.162;2023-03-01T09:34:43;6.43;;;5.07;;
15871;SDS011;8035;51.962;7.162;2023-03-01T09:37:27;6.97;;;5.10;;
15871;SDS011;8035;51.962;7.162;2023-03-01T09:39:53;7.33;;;5.33;;
15871;SDS011;8035;51.962;7.162;2023-03-01T09:42:19;6.80;;;4.93;;
15871;SDS011;8035;51.962;7.162;2023-03-01T09:45:07;7.17;;;5.47;;
15871;SDS011;8035;51.962;7.162;2023-03-01T09:47:40;5.70;;;4.60;;
15871;SDS011;8035;51.962;7.162;2023-03-01T09:50:10;7.03;;;5.23;;
15871;SDS011;8035;51.962;7.162;2023-03-01T09:55:17;6.83;;;5.17;;
15871;SDS011;8035;51.962;7.162;2023-03-01T09:57:53;6.37;;;5.20;;
15871;SDS011;8035;51.962;7.162;2023-03-01T10:00:39;6.50;;;4.93;;
15871;SDS011;8035;51.962;7.162;2023-03-01T10:05:43;7.30;;;5.30;;
15871;SDS011;8035;51.962;7.162;2023-03-01T10:08:34;6.67;;;4.83;;
15871;SDS011;8035;51.962;7.162;2023-03-01T10:11:04;6.13;;;5.13;;
15871;SDS011;8035;51.962;7.162;2023-03-01T10:13:45;6.23;;;4.97;;
15871;SDS011;8035;51.962;7.162;2023-03-01T10:22:20;8.93;;;5.90;;
15871;SDS011;8035;51.962;7.162;2023-03-01T10:24:57;7.03;;;6.00;;
15871;SDS011;8035;51.962;7.162;2023-03-01T10:29:59;8.60;;;5.30;;
15871;SDS011;8035;51.962;7.162;2023-03-01T10:32:31;7.67;;;5.90;;
15871;SDS011;8035;51.962;7.162;2023-03-01T10:34:56;7.20;;;6.00;;
15871;SDS011;8035;51.962;7.162;2023-03-01T10:37:22;8.27;;;6.13;;
15871;SDS011;8035;51.962;7.162;2023-03-01T10:40:08;6.33;;;5.27;;
15871;SDS011;8035;51.962;7.162;2023-03-01T10:42:38;7.73;;;5.07;;
15871;SDS011;8035;51.962;7.162;2023-03-01T10:45:26;6.87;;;5.47;;
15871;SDS011;8035;51.962;7.162;2023-03-01T10:48:17;11.00;;;6.20;;
15871;SDS011;8035;51.962;7.162;2023-03-01T10:50:48;7.17;;;5.83;;
15871;SDS011;8035;51.962;7.162;2023-03-01T10:53:41;7.97;;;5.73;;
15871;SDS011;8035;51.962;7.162;2023-03-01T10:56:13;6.77;;;5.60;;
15871;SDS011;8035;51.962;7.162;2023-03-01T10:59:02;6.43;;;5.43;;
15871;SDS011;8035;51.962;7.162;2023-03-01T11:01:34;8.50;;;6.23;;
15871;SDS011;8035;51.962;7.162;2023-03-01T11:06:36;11.00;;;5.97;;
15871;SDS011;8035;51.962;7.162;2023-03-01T11:09:16;6.87;;;5.90;;
15871;SDS011;8035;51.962;7.162;2023-03-01T11:12:11;6.93;;;6.23;;
15871;SDS011;8035;51.962;7.162;2023-03-01T11:14:45;6.57;;;5.87;;
15871;SDS011;8035;51.962;7.162;2023-03-01T11:20:02;8.30;;;5.90;;
15871;SDS011;8035;51.962;7.162;2023-03-01T11:22:47;7.87;;;5.57;;
15871;SDS011;8035;51.962;7.162;2023-03-01T11:25:18;7.13;;;6.30;;
15871;SDS011;8035;51.962;7.162;2023-03-01T11:27:48;7.27;;;5.47;;
15871;SDS011;8035;51.962;7.162;2023-03-01T11:30:24;7.07;;;5.67;;
15871;SDS011;8035;51.962;7.162;2023-03-01T11:36:19;10.80;;;5.93;;
15871;SDS011;8035;51.962;7.162;2023-03-01T11:38:52;6.50;;;5.70;;
15871;SDS011;8035;51.962;7.162;2023-03-01T11:44:10;10.10;;;6.13;;
15871;SDS011;8035;51.962;7.162;2023-03-01T12:00:18;8.53;;;5.77;;
15871;SDS011;8035;51.962;7.162;2023-03-01T12:08:47;7.37;;;5.50;;
15871;SDS011;8035;51.962;7.162;2023-03-01T12:22:59;7.63;;;5.83;;
15871;SDS011;8035;51.962;7.162;2023-03-01T12:39:47;7.40;;;5.63;;
15871;SDS011;8035;51.962;7.162;2023-03-01T12:50:53;7.00;;;4.80;;
15871;SDS011;8035;51.962;7.162;2023-03-01T12:53:29;6.97;;;5.17;;
15871;SDS011;8035;51.962;7.162;2023-03-01T12:56:02;9.53;;;7.17;;
15871;SDS011;8035;51.962;7.162;2023-03-01T13:11:59;5.97;;;5.33;;
15871;SDS011;8035;51.962;7.162;2023-03-01T13:16:53;5.07;;;4.47;;
15871;SDS011;8035;51.962;7.162;2023-03-01T13:19:23;5.13;;;4.60;;
15871;SDS011;8035;51.962;7.162;2023-03-01T13:21:51;7.40;;;5.37;;
15871;SDS011;8035;51.962;7.162;2023-03-01T13:32:19;6.63;;;5.00;;
15871;SDS011;8035;51.962;7.162;2023-03-01T13:34:48;5.10;;;4.47;;
15871;SDS011;8035;51.962;7.162;2023-03-01T13:37:19;5.30;;;4.77;;
15871;SDS011;8035;51.962;7.162;2023-03-01T13:39:47;6.87;;;5.07;;
15871;SDS011;8035;51.962;7.162;2023-03-01T13:42:32;6.87;;;4.90;;
15871;SDS011;8035;51.962;7.162;2023-03-01T13:45:01;6.10;;;4.60;;
15871;SDS011;8035;51.962;7.162;2023-03-01T13:47:29;7.33;;;4.90;;
15871;SDS011;8035;51.962;7.162;2023-03-01T13:50:49;5.73;;;4.80;;
15871;SDS011;8035;51.962;7.162;2023-03-01T13:53:22;7.43;;;4.90;;
15871;SDS011;8035;51.962;7.162;2023-03-01T13:55:55;5.40;;;4.57;;
15871;SDS011;8035;51.962;7.162;2023-03-01T14:01:02;6.30;;;4.10;;
15871;SDS011;8035;51.962;7.162;2023-03-01T14:03:30;5.67;;;4.40;;
15871;SDS011;8035;51.962;7.162;2023-03-01T14:05:58;5.77;;;4.53;;
15871;SDS011;8035;51.962;7.162;2023-03-01T14:08:27;7.33;;;4.43;;
15871;SDS011;8035;51.962;7.162;2023-03-01T14:13:38;7.50;;;4.90;;
15871;SDS011;8035;51.962;7.162;2023-03-01T14:21:29;5.50;;;4.90;;
15871;SDS011;8035;51.962;7.162;2023-03-01T14:23:55;5.30;;;4.60;;
15871;SDS011;8035;51.962;7.162;2023-03-01T14:26:22;7.47;;;4.43;;
15871;SDS011;8035;51.962;7.162;2023-03-01T14:28:48;5.87;;;5.27;;
15871;SDS011;8035;51.962;7.162;2023-03-01T14:34:01;6.03;;;4.77;;
15871;SDS011;8035;51.962;7.162;2023-03-01T14:36:28;6.30;;;5.00;;
15871;SDS011;8035;51.962;7.162;2023-03-01T14:38:55;7.23;;;5.40;;
15871;SDS011;8035;51.962;7.162;2023-03-01T14:41:29;13.07;;;10.87;;
15871;SDS011;8035;51.962;7.162;2023-03-01T14:44:06;11.60;;;8.77;;
15871;SDS011;8035;51.962;7.162;2023-03-01T14:49:11;6.63;;;5.00;;
15871;SDS011;8035;51.962;7.162;2023-03-01T14:51:55;7.23;;;5.13;;
15871;SDS011;8035;51.962;7.162;2023-03-01T14:54:39;6.67;;;4.63;;
15871;SDS011;8035;51.962;7.162;2023-03-01T14:57:24;5.80;;;4.20;;
15871;SDS011;8035;51.962;7.162;2023-03-01T14:59:51;6.27;;;4.50;;
15871;SDS011;8035;51.962;7.162;2023-03-01T15:02:24;6.77;;;5.00;;
15871;SDS011;8035;51.962;7.162;2023-03-01T15:04:52;4.97;;;3.97;;
15871;SDS011;8035;51.962;7.162;2023-03-01T15:07:22;4.30;;;3.90;;
15871;SDS011;8035;51.962;7.162;2023-03-01T15:09:54;6.53;;;3.60;;
15871;SDS011;8035;51.962;7.162;2023-03-01T15:17:56;5.60;;;4.00;;
15871;SDS011;8035;51.962;7.162;2023-03-01T15:20:25;4.73;;;4.13;;
15871;SDS011;8035;51.962;7.162;2023-03-01T15:22:54;4.53;;;3.73;;
15871;SDS011;8035;51.962;7.162;2023-03-01T15:25:21;4.63;;;4.13;;
15871;SDS011;8035;51.962;7.162;2023-03-01T15:27:51;6.43;;;4.07;;
15871;SDS011;8035;51.962;7.162;2023-03-01T15:30:18;4.70;;;3.57;;
15871;SDS011;8035;51.962;7.162;2023-03-01T15:32:47;4.20;;;3.80;;
15871;SDS011;8035;51.962;7.162;2023-03-01T15:38:36;5.43;;;4.40;;
15871;SDS011;8035;51.962;7.162;2023-03-01T15:41:24;5.63;;;4.03;;
15871;SDS011;8035;51.962;7.162;2023-03-01T15:43:51;4.83;;;3.80;;
15871;SDS011;8035;51.962;7.162;2023-03-01T15:46:27;4.10;;;3.67;;
15871;SDS011;8035;51.962;7.162;2023-03-01T15:48:59;5.43;;;4.13;;
15871;SDS011;8035;51.962;7.162;2023-03-01T15:51:34;4.50;;;3.97;;
15871;SDS011;8035;51.962;7.162;2023-03-01T15:54:04;5.03;;;4.17;;
15871;SDS011;8035;51.962;7.162;2023-03-01T15:56:43;4.70;;;3.80;;
15871;SDS011;8035;51.962;7.162;2023-03-01T15:59:09;5.43;;;3.97;;
15871;SDS011;8035;51.962;7.162;2023-03-01T16:01:43;6.20;;;3.70;;
15871;SDS011;8035;51.962;7.162;2023-03-01T16:04:10;5.53;;;3.80;;
15871;SDS011;8035;51.962;7.162;2023-03-01T16:06:45;5.10;;;3.50;;
15871;SDS011;8035;51.962;7.162;2023-03-01T16:09:19;6.33;;;3.60;;
15871;SDS011;8035;51.962;7.162;2023-03-01T16:11:48;6.53;;;3.83;;
15871;SDS011;8035;51.962;7.162;2023-03-01T16:14:14;4.60;;;3.47;;
15871;SDS011;8035;51.962;7.162;2023-03-01T16:16:41;4.03;;;3.63;;
15871;SDS011;8035;51.962;7.162;2023-03-01T16:19:07;4.33;;;3.77;;
15871;SDS011;8035;51.962;7.162;2023-03-01T16:21:32;3.90;;;3.50;;
15871;SDS011;8035;51.962;7.162;2023-03-01T16:23:58;5.73;;;3.90;;
15871;SDS011;8035;51.962;7.162;2023-03-01T16:26:24;3.73;;;3.10;;
15871;SDS011;8035;51.962;7.162;2023-03-01T16:28:49;5.93;;;4.20;;
15871;SDS011;8035;51.962;7.162;2023-03-01T16:31:19;4.83;;;3.40;;
15871;SDS011;8035;51.962;7.162;2023-03-01T16:33:44;5.13;;;3.80;;
15871;SDS011;8035;51.962;7.162;2023-03-01T16:36:14;5.27;;;3.33;;
15871;SDS011;8035;51.962;7.162;2023-03-01T16:38:41;7.17;;;3.37;;
15871;SDS011;8035;51.962;7.162;2023-03-01T16:41:09;7.57;;;3.83;;
15871;SDS011;8035;51.962;7.162;2023-03-01T16:43:37;5.00;;;3.90;;
15871;SDS011;8035;51.962;7.162;2023-03-01T16:46:09;5.43;;;3.30;;
15871;SDS011;8035;51.962;7.162;2023-03-01T16:48:39;5.03;;;3.60;;
15871;SDS011;8035;51.962;7.162;2023-03-01T16:51:04;5.50;;;3.47;;
15871;SDS011;8035;51.962;7.162;2023-03-01T16:53:32;4.70;;;3.00;;
15871;SDS011;8035;51.962;7.162;2023-03-01T16:56:01;4.50;;;3.17;;
15871;SDS011;8035;51.962;7.162;2023-03-01T16:58:27;5.30;;;3.80;;
15871;SDS011;8035;51.962;7.162;2023-03-01T17:00:53;3.87;;;3.07;;
15871;SDS011;8035;51.962;7.162;2023-03-01T17:03:21;4.00;;;3.60;;
15871;SDS011;8035;51.962;7.162;2023-03-01T17:05:48;4.83;;;4.10;;
15871;SDS011;8035;51.962;7.162;2023-03-01T17:08:15;4.33;;;3.57;;
15871;SDS011;8035;51.962;7.162;2023-03-01T17:10:41;3.70;;;3.30;;
15871;SDS011;8035;51.962;7.162;2023-03-01T17:13:08;3.53;;;3.00;;
15871;SDS011;8035;51.962;7.162;2023-03-01T17:15:34;4.63;;;3.50;;
15871;SDS011;8035;51.962;7.162;2023-03-01T17:18:02;7.00;;;4.03;;
15871;SDS011;8035;51.962;7.162;2023-03-01T17:20:28;5.10;;;4.00;;
15871;SDS011;8035;51.962;7.162;2023-03-01T17:22:54;4.90;;;3.77;;
15871;SDS011;8035;51.962;7.162;2023-03-01T17:25:19;6.73;;;3.77;;
15871;SDS011;8035;51.962;7.162;2023-03-01T17:27:45;7.43;;;3.40;;
15871;SDS011;8035;51.962;7.162;2023-03-01T17:30:11;5.53;;;3.63;;
15871;SDS011;8035;51.962;7.162;2023-03-01T17:32:38;5.33;;;4.10;;
15871;SDS011;8035;51.962;7.162;2023-03-01T17:35:04;6.13;;;4.03;;
15871;SDS011;8035;51.962;7.162;2023-03-01T17:37:30;10.60;;;8.13;;
15871;SDS011;8035;51.962;7.162;2023-03-01T17:39:56;7.50;;;6.43;;
15871;SDS011;8035;51.962;7.162;2023-03-01T17:42:21;7.47;;;5.80;;
15871;SDS011;8035;51.962;7.162;2023-03-01T17:44:47;7.50;;;5.50;;
15871;SDS011;8035;51.962;7.162;2023-03-01T17:47:13;6.73;;;5.40;;